Time;durP1;ratioP1;P1;durP2;ratioP2;P2;SDS_P1;SDS_P2;PMS_P1;PMS_P2;Temp;Humidity;BMP_temperature;BMP_pressure;BME280_temperature;BME280_humidity;BME280_pressure;Samples;Min_cycle;Max_cycle;Signal;HPM_P1;HPM_P2
2023/05/21 00:02:18;;;;;;;39.22;24.27;;;;;;;;;;4951811;28;20500;-80
2023/05/21 00:04:45;;;;;;;39.17;23.52;;;;;;;;;;4952133;28;20046;-81
2023/05/21 00:07:14;;;;;;;42.28;22.83;;;;;;;;;;4952601;28;20075;-80
2023/05/21 00:09:41;;;;;;;40.83;22.85;;;;;;;;;;4953812;28;20058;-81
2023/05/21 00:12:08;;;;;;;43.15;24.00;;;;;;;;;;4968569;28;20078;-82
2023/05/21 00:14:34;;;;;;;42.08;23.15;;;;;;;;;;4938395;28;20058;-82
2023/05/21 00:17:01;;;;;;;40.00;23.33;;;;;;;;;;4955804;28;20050;-81
2023/05/21 00:19:27;;;;;;;45.42;24.83;;;;;;;;;;4955582;28;20067;-82
2023/05/21 00:21:54;;;;;;;41.22;23.02;;;;;;;;;;4955302;28;20051;-82
2023/05/21 00:24:21;;;;;;;43.90;22.40;;;;;;;;;;4954726;28;20150;-79
2023/05/21 00:26:48;;;;;;;37.00;21.75;;;;;;;;;;4953457;28;20048;-80
2023/05/21 00:29:14;;;;;;;38.00;22.25;;;;;;;;;;4936148;28;20048;-80
2023/05/21 00:31:41;;;;;;;39.67;22.98;;;;;;;;;;4955189;28;20052;-81
2023/05/21 00:34:11;;;;;;;41.25;22.23;;;;;;;;;;4935243;28;20055;-81
2023/05/21 00:36:39;;;;;;;36.67;20.92;;;;;;;;;;4950311;28;20049;-79
2023/05/21 00:39:05;;;;;;;36.92;21.73;;;;;;;;;;4950676;28;20165;-80
2023/05/21 00:41:34;;;;;;;34.70;20.55;;;;;;;;;;4934044;28;20047;-81
2023/05/21 00:44:03;;;;;;;35.85;20.73;;;;;;;;;;4951049;28;20055;-81
2023/05/21 00:46:29;;;;;;;39.70;22.35;;;;;;;;;;4920627;28;20051;-81
2023/05/21 00:48:57;;;;;;;34.42;20.60;;;;;;;;;;4951913;28;20044;-82
2023/05/21 00:51:24;;;;;;;33.78;20.75;;;;;;;;;;4951940;28;20058;-81
2023/05/21 00:53:51;;;;;;;37.13;19.88;;;;;;;;;;4955850;28;20071;-79
2023/05/21 00:56:20;;;;;;;31.92;19.00;;;;;;;;;;4938596;28;20047;-79
2023/05/21 00:58:47;;;;;;;32.78;20.33;;;;;;;;;;4971448;28;20170;-80
2023/05/21 01:01:14;;;;;;;37.28;19.90;;;;;;;;;;4971117;28;20110;-78
2023/05/21 01:03:41;;;;;;;32.88;20.15;;;;;;;;;;4953798;28;20047;-79
2023/05/21 01:06:09;;;;;;;34.25;19.20;;;;;;;;;;4971466;28;20488;-81
2023/05/21 01:08:39;;;;;;;35.05;19.77;;;;;;;;;;4969822;28;20047;-80
2023/05/21 01:11:06;;;;;;;34.15;18.88;;;;;;;;;;4969299;28;20051;-80
2023/05/21 01:13:36;;;;;;;33.75;20.00;;;;;;;;;;4956641;28;20067;-81
2023/05/21 01:16:05;;;;;;;31.02;19.48;;;;;;;;;;4974632;28;20103;-81
2023/05/21 01:18:33;;;;;;;32.92;20.90;;;;;;;;;;4977436;28;20144;-80
2023/05/21 01:21:01;;;;;;;32.65;20.70;;;;;;;;;;4983340;28;20100;-81
2023/05/21 01:23:28;;;;;;;33.55;19.20;;;;;;;;;;4973520;28;22002;-80
2023/05/21 01:25:54;;;;;;;31.88;19.67;;;;;;;;;;4968549;28;20043;-81
2023/05/21 01:28:21;;;;;;;31.38;20.15;;;;;;;;;;4936969;28;20069;-81
2023/05/21 01:30:48;;;;;;;34.03;19.63;;;;;;;;;;4969396;28;20039;-79
2023/05/21 01:33:20;;;;;;;34.72;20.50;;;;;;;;;;4953460;28;20122;-80
2023/05/21 01:35:59;;;;;;;36.60;19.98;;;;;;;;;;4954077;28;20043;-81
2023/05/21 01:38:38;;;;;;;33.25;19.77;;;;;;;;;;4953015;28;20035;-80
2023/05/21 01:41:12;;;;;;;30.23;19.67;;;;;;;;;;4953181;28;20047;-80
2023/05/21 01:43:40;;;;;;;33.17;19.83;;;;;;;;;;4952611;28;20122;-79
2023/05/21 01:46:08;;;;;;;31.80;20.13;;;;;;;;;;4937817;29;20040;-79
2023/05/21 01:48:35;;;;;;;32.55;20.20;;;;;;;;;;4953055;28;20051;-80
2023/05/21 01:51:03;;;;;;;31.40;19.55;;;;;;;;;;4952336;28;20054;-79
2023/05/21 01:53:30;;;;;;;32.75;20.25;;;;;;;;;;4952809;28;20049;-80
2023/05/21 01:55:58;;;;;;;34.47;19.83;;;;;;;;;;4951941;28;20047;-79
2023/05/21 01:58:25;;;;;;;34.22;19.83;;;;;;;;;;4968598;28;20073;-79
2023/05/21 02:00:51;;;;;;;33.83;19.88;;;;;;;;;;4967773;28;20047;-79
2023/05/21 02:03:18;;;;;;;36.88;20.50;;;;;;;;;;4966639;28;20047;-79
2023/05/21 02:05:46;;;;;;;33.63;20.15;;;;;;;;;;4935165;28;20122;-80
2023/05/21 02:08:13;;;;;;;34.22;20.45;;;;;;;;;;4967910;28;20062;-79
2023/05/21 02:10:40;;;;;;;32.95;20.00;;;;;;;;;;4953493;28;20051;-78
2023/05/21 02:13:07;;;;;;;34.42;20.77;;;;;;;;;;4952158;28;20039;-80
2023/05/21 02:15:34;;;;;;;32.15;19.95;;;;;;;;;;4951851;28;20055;-80
2023/05/21 02:18:02;;;;;;;35.63;20.08;;;;;;;;;;4951938;28;20054;-79
2023/05/21 02:20:29;;;;;;;31.95;20.15;;;;;;;;;;4951048;28;20055;-77
2023/05/21 02:22:56;;;;;;;32.25;20.17;;;;;;;;;;4936591;28;20047;-78
2023/05/21 02:25:22;;;;;;;33.30;19.83;;;;;;;;;;4952120;28;20114;-79
2023/05/21 02:27:52;;;;;;;31.88;19.15;;;;;;;;;;4936673;28;20043;-79
2023/05/21 02:30:20;;;;;;;29.25;18.77;;;;;;;;;;4950866;28;20047;-80
2023/05/21 02:32:47;;;;;;;32.03;19.67;;;;;;;;;;4952921;28;20067;-79
2023/05/21 02:35:14;;;;;;;32.75;19.70;;;;;;;;;;4968241;28;20051;-79
2023/05/21 02:37:44;;;;;;;35.22;20.20;;;;;;;;;;4967802;28;20047;-79
2023/05/21 02:40:11;;;;;;;36.60;20.10;;;;;;;;;;4951462;28;20551;-80
2023/05/21 02:42:39;;;;;;;37.75;21.60;;;;;;;;;;4952234;28;20062;-78
2023/05/21 02:45:09;;;;;;;32.90;20.65;;;;;;;;;;4938765;28;20532;-79
2023/05/21 02:47:38;;;;;;;36.05;21.98;;;;;;;;;;4966010;28;20071;-79
2023/05/21 02:50:06;;;;;;;34.28;20.65;;;;;;;;;;4966863;28;20044;-79
2023/05/21 02:52:39;;;;;;;38.10;21.98;;;;;;;;;;4951488;28;20058;-79
2023/05/21 02:55:06;;;;;;;37.22;21.63;;;;;;;;;;4966639;28;20068;-78
2023/05/21 02:57:33;;;;;;;37.75;20.05;;;;;;;;;;4951328;28;20513;-77
2023/05/21 02:59:59;;;;;;;36.58;21.27;;;;;;;;;;4952316;28;20061;-79
2023/05/21 03:02:28;;;;;;;40.03;21.73;;;;;;;;;;4967189;28;20282;-79
2023/05/21 03:04:57;;;;;;;38.85;22.15;;;;;;;;;;4954425;28;20390;-79
2023/05/21 03:07:24;;;;;;;36.58;22.23;;;;;;;;;;4955347;28;20536;-80
2023/05/21 03:09:50;;;;;;;37.17;21.42;;;;;;;;;;4940656;28;20051;-80
2023/05/21 03:12:17;;;;;;;36.42;22.92;;;;;;;;;;4972752;28;20039;-79
2023/05/21 03:14:45;;;;;;;37.25;22.60;;;;;;;;;;4972580;28;20043;-79
2023/05/21 03:17:15;;;;;;;40.72;22.05;;;;;;;;;;4971555;28;20039;-78
2023/05/21 03:19:43;;;;;;;42.58;22.83;;;;;;;;;;4939479;28;20050;-79
2023/05/21 03:22:13;;;;;;;40.40;22.17;;;;;;;;;;4970388;28;20058;-78
2023/05/21 03:24:40;;;;;;;36.72;21.58;;;;;;;;;;4969903;28;20047;-78
2023/05/21 03:27:07;;;;;;;37.00;21.15;;;;;;;;;;4971347;28;20043;-78
2023/05/21 03:29:35;;;;;;;36.15;21.08;;;;;;;;;;4971694;28;20039;-78
2023/05/21 03:32:02;;;;;;;37.35;21.00;;;;;;;;;;4955845;28;20125;-78
2023/05/21 03:34:33;;;;;;;37.53;20.98;;;;;;;;;;4955357;28;20094;-79
2023/05/21 03:37:01;;;;;;;34.20;19.80;;;;;;;;;;4971520;28;20062;-79
2023/05/21 03:39:28;;;;;;;31.02;18.52;;;;;;;;;;4991008;28;20028;-80
2023/05/21 03:41:55;;;;;;;31.83;19.50;;;;;;;;;;4967189;28;20453;-81
2023/05/21 03:44:31;;;;;;;33.67;20.30;;;;;;;;;;4962149;28;20241;-81
2023/05/21 03:47:24;;;;;;;29.73;18.70;;;;;;;;;;4964353;28;20093;-79
2023/05/21 03:49:52;;;;;;;31.98;19.38;;;;;;;;;;4960415;28;20051;-80
2023/05/21 03:52:19;;;;;;;30.20;19.00;;;;;;;;;;4966861;28;20118;-80
2023/05/21 03:54:46;;;;;;;33.38;18.88;;;;;;;;;;4953657;28;20047;-79
2023/05/21 03:57:12;;;;;;;33.65;19.33;;;;;;;;;;4968200;28;20043;-79
2023/05/21 03:59:39;;;;;;;31.67;18.08;;;;;;;;;;4967871;28;20049;-79
2023/05/21 04:02:06;;;;;;;32.33;19.15;;;;;;;;;;4973399;28;20057;-79
2023/05/21 04:04:33;;;;;;;30.23;18.83;;;;;;;;;;4967081;28;20728;-79
2023/05/21 04:06:59;;;;;;;33.35;19.17;;;;;;;;;;4972033;28;20198;-80
2023/05/21 04:09:26;;;;;;;34.60;19.25;;;;;;;;;;4970715;28;20051;-79
2023/05/21 04:11:53;;;;;;;34.92;18.92;;;;;;;;;;4988192;28;20042;-78
2023/05/21 04:14:20;;;;;;;30.95;19.00;;;;;;;;;;4970358;28;20043;-78
2023/05/21 04:16:49;;;;;;;33.80;19.70;;;;;;;;;;4967522;28;20046;-79
2023/05/21 04:19:16;;;;;;;31.35;19.25;;;;;;;;;;4956996;28;20047;-79
2023/05/21 04:21:43;;;;;;;32.22;19.02;;;;;;;;;;4989004;28;20534;-79
2023/05/21 04:24:12;;;;;;;33.38;19.50;;;;;;;;;;4972403;28;20062;-79
2023/05/21 04:26:49;;;;;;;31.42;18.60;;;;;;;;;;4987037;28;20089;-79
2023/05/21 04:29:20;;;;;;;33.75;21.15;;;;;;;;;;4962288;28;20039;-80
2023/05/21 04:31:48;;;;;;;37.30;22.05;;;;;;;;;;4950577;28;20057;-78
2023/05/21 04:34:18;;;;;;;33.92;20.40;;;;;;;;;;4934904;28;20046;-79
2023/05/21 04:36:45;;;;;;;36.97;22.52;;;;;;;;;;4950694;28;20472;-79
2023/05/21 04:39:13;;;;;;;35.58;22.42;;;;;;;;;;4967718;28;20158;-80
2023/05/21 04:41:40;;;;;;;36.65;21.10;;;;;;;;;;4967271;28;20039;-79
2023/05/21 04:44:07;;;;;;;37.88;22.30;;;;;;;;;;4952178;28;20051;-80
2023/05/21 04:46:36;;;;;;;30.15;19.48;;;;;;;;;;4961958;28;20055;-80
2023/05/21 04:49:07;;;;;;;36.67;20.83;;;;;;;;;;4967635;28;20315;-80
2023/05/21 04:51:36;;;;;;;35.35;20.98;;;;;;;;;;4967430;28;20353;-80
2023/05/21 04:54:03;;;;;;;34.30;20.85;;;;;;;;;;4952075;28;20051;-80
2023/05/21 04:56:30;;;;;;;34.20;21.02;;;;;;;;;;4968651;28;20051;-80
2023/05/21 04:58:57;;;;;;;32.55;20.33;;;;;;;;;;4952836;28;20354;-81
2023/05/21 05:01:25;;;;;;;35.03;21.65;;;;;;;;;;4951197;28;20126;-80
2023/05/21 05:03:52;;;;;;;31.77;20.10;;;;;;;;;;4967941;28;20043;-81
2023/05/21 05:06:20;;;;;;;33.95;20.85;;;;;;;;;;4951820;28;20130;-79
2023/05/21 05:08:47;;;;;;;32.35;20.17;;;;;;;;;;4967083;28;20039;-79
2023/05/21 05:11:14;;;;;;;31.05;19.08;;;;;;;;;;4933204;28;20631;-80
2023/05/21 05:13:41;;;;;;;32.40;19.55;;;;;;;;;;4950073;28;20102;-79
2023/05/21 05:16:08;;;;;;;32.25;19.85;;;;;;;;;;4949779;28;20062;-80
2023/05/21 05:18:35;;;;;;;33.40;20.23;;;;;;;;;;4965843;28;20094;-80
2023/05/21 05:21:02;;;;;;;31.73;19.92;;;;;;;;;;4949979;28;20043;-79
2023/05/21 05:23:29;;;;;;;31.65;19.08;;;;;;;;;;4950944;28;20480;-79
2023/05/21 05:25:55;;;;;;;31.63;18.67;;;;;;;;;;4950815;28;20560;-80
2023/05/21 05:28:22;;;;;;;30.35;19.08;;;;;;;;;;4966294;28;20051;-80
2023/05/21 05:30:49;;;;;;;30.73;18.30;;;;;;;;;;4953231;28;20467;-80
2023/05/21 05:33:23;;;;;;;31.23;18.60;;;;;;;;;;4951750;28;20113;-80
2023/05/21 05:35:50;;;;;;;31.80;19.23;;;;;;;;;;4950166;28;20057;-80
2023/05/21 05:38:17;;;;;;;30.05;17.85;;;;;;;;;;4967145;28;20055;-79
2023/05/21 05:40:44;;;;;;;27.67;18.52;;;;;;;;;;4966343;28;20054;-79
2023/05/21 05:43:12;;;;;;;26.98;18.10;;;;;;;;;;4951329;28;20051;-80
2023/05/21 05:45:42;;;;;;;29.38;18.48;;;;;;;;;;4966344;28;20043;-80
2023/05/21 05:48:12;;;;;;;25.23;17.23;;;;;;;;;;4967166;28;20058;-81
2023/05/21 05:50:38;;;;;;;26.52;17.45;;;;;;;;;;4952732;28;20452;-72
2023/05/21 05:53:06;;;;;;;30.52;19.20;;;;;;;;;;4968665;28;20114;-80
2023/05/21 05:55:33;;;;;;;27.52;17.75;;;;;;;;;;4952812;28;20070;-80
2023/05/21 05:58:00;;;;;;;31.98;17.85;;;;;;;;;;4936626;28;20063;-81
2023/05/21 06:00:26;;;;;;;25.98;17.60;;;;;;;;;;4962050;28;20074;-82
2023/05/21 06:02:53;;;;;;;28.73;17.92;;;;;;;;;;4941535;28;20047;-82
2023/05/21 06:05:21;;;;;;;25.95;16.40;;;;;;;;;;4952991;28;20050;-83
2023/05/21 06:07:48;;;;;;;28.88;17.50;;;;;;;;;;4954002;28;20459;-83
2023/05/21 06:10:14;;;;;;;25.88;17.10;;;;;;;;;;4970076;28;20053;-81
2023/05/21 06:12:41;;;;;;;26.38;17.25;;;;;;;;;;4968904;28;20079;-81
2023/05/21 06:15:08;;;;;;;30.10;16.30;;;;;;;;;;4967500;28;20142;-83
2023/05/21 06:17:35;;;;;;;30.25;17.75;;;;;;;;;;4966754;28;20055;-82
2023/05/21 06:20:02;;;;;;;24.55;16.30;;;;;;;;;;4950202;28;20051;-82
2023/05/21 06:22:29;;;;;;;25.67;16.70;;;;;;;;;;4934466;28;20440;-81
2023/05/21 06:24:56;;;;;;;25.08;17.10;;;;;;;;;;4935067;28;20058;-80
2023/05/21 06:27:23;;;;;;;26.00;16.42;;;;;;;;;;4945058;28;20045;-81
2023/05/21 06:29:50;;;;;;;27.52;16.15;;;;;;;;;;4966770;28;20043;-79
2023/05/21 06:32:17;;;;;;;28.73;16.50;;;;;;;;;;4967363;28;20479;-81
2023/05/21 06:34:43;;;;;;;24.45;15.77;;;;;;;;;;4967655;28;20461;-85
2023/05/21 06:37:10;;;;;;;22.23;15.25;;;;;;;;;;4936773;29;20069;-85
2023/05/21 06:39:37;;;;;;;24.85;15.65;;;;;;;;;;4974316;28;20046;-83
2023/05/21 06:42:04;;;;;;;24.02;15.30;;;;;;;;;;4973559;28;20039;-84
2023/05/21 06:44:43;;;;;;;26.52;14.77;;;;;;;;;;4988022;28;20101;-83
2023/05/21 06:47:39;;;;;;;27.05;15.20;;;;;;;;;;4969132;28;20043;-83
2023/05/21 06:50:07;;;;;;;22.40;13.55;;;;;;;;;;4963610;28;20500;-83
2023/05/21 06:52:33;;;;;;;23.83;14.68;;;;;;;;;;4954455;28;20168;-83
2023/05/21 06:55:01;;;;;;;22.92;14.52;;;;;;;;;;4967879;28;20058;-85
2023/05/21 06:57:42;;;;;;;20.63;14.00;;;;;;;;;;4983471;28;20043;-83
2023/05/21 07:00:09;;;;;;;22.60;14.30;;;;;;;;;;4966291;28;20038;-86
2023/05/21 07:02:37;;;;;;;21.13;14.00;;;;;;;;;;4967700;28;20078;-86
2023/05/21 07:05:03;;;;;;;21.20;13.70;;;;;;;;;;4967536;28;21099;-85
2023/05/21 07:07:30;;;;;;;22.05;13.82;;;;;;;;;;4968129;28;20047;-81
2023/05/21 07:09:58;;;;;;;26.73;13.98;;;;;;;;;;4948110;28;20061;-81
2023/05/21 07:12:24;;;;;;;21.38;13.27;;;;;;;;;;4949675;28;20579;-81
2023/05/21 07:14:51;;;;;;;18.00;12.52;;;;;;;;;;4947344;28;20055;-82
2023/05/21 07:17:18;;;;;;;18.88;12.00;;;;;;;;;;4962735;28;20053;-83
2023/05/21 07:19:45;;;;;;;27.50;13.40;;;;;;;;;;4981546;28;20053;-80
2023/05/21 07:22:13;;;;;;;17.63;12.13;;;;;;;;;;4953920;28;20043;-75
2023/05/21 07:24:40;;;;;;;18.98;11.77;;;;;;;;;;4978125;28;20117;-70
2023/05/21 07:27:07;;;;;;;17.40;11.48;;;;;;;;;;4967130;28;20050;-70
2023/05/21 07:29:50;;;;;;;15.95;11.43;;;;;;;;;;4954428;28;20298;-70
2023/05/21 07:32:20;;;;;;;16.08;10.65;;;;;;;;;;4962596;28;20595;-70
2023/05/21 07:34:47;;;;;;;18.55;11.70;;;;;;;;;;4961791;28;20480;-70
2023/05/21 07:37:14;;;;;;;14.85;11.00;;;;;;;;;;4959678;28;20047;-71
2023/05/21 07:39:41;;;;;;;15.98;10.98;;;;;;;;;;4961542;28;20054;-70
2023/05/21 07:42:09;;;;;;;16.00;10.63;;;;;;;;;;4971713;28;20043;-71
2023/05/21 07:44:35;;;;;;;21.08;10.15;;;;;;;;;;4936731;28;20067;-70
2023/05/21 07:47:02;;;;;;;16.17;9.98;;;;;;;;;;4945491;28;20067;-70
2023/05/21 07:49:29;;;;;;;15.93;10.13;;;;;;;;;;4944675;28;20074;-69
2023/05/21 07:51:56;;;;;;;16.42;10.45;;;;;;;;;;4961355;28;20441;-75
2023/05/21 07:54:23;;;;;;;17.02;9.85;;;;;;;;;;4960739;28;20097;-75
2023/05/21 07:56:50;;;;;;;17.70;10.40;;;;;;;;;;4929878;28;20051;-76
2023/05/21 07:59:43;;;;;;;14.00;10.10;;;;;;;;;;4945071;28;20419;-71
2023/05/21 08:02:09;;;;;;;15.70;10.10;;;;;;;;;;4941066;28;20051;-71
2023/05/21 08:04:37;;;;;;;15.45;9.82;;;;;;;;;;4964732;28;20491;-71
2023/05/21 08:07:08;;;;;;;15.45;9.95;;;;;;;;;;4929752;28;20133;-70
2023/05/21 08:09:35;;;;;;;12.57;8.93;;;;;;;;;;4961589;28;20161;-70
2023/05/21 08:12:02;;;;;;;13.88;9.82;;;;;;;;;;4944806;28;20057;-70
2023/05/21 08:14:29;;;;;;;13.68;9.50;;;;;;;;;;4956989;28;20079;-70
2023/05/21 08:16:56;;;;;;;15.63;9.82;;;;;;;;;;4958918;28;20118;-69
2023/05/21 08:19:22;;;;;;;16.88;9.18;;;;;;;;;;4948573;28;20255;-71
2023/05/21 08:21:49;;;;;;;16.92;10.38;;;;;;;;;;4947166;28;20078;-71
2023/05/21 08:24:19;;;;;;;16.20;9.93;;;;;;;;;;4945647;28;20053;-74
2023/05/21 08:26:48;;;;;;;13.20;8.75;;;;;;;;;;4943875;28;20047;-76
2023/05/21 08:29:15;;;;;;;14.15;8.75;;;;;;;;;;4965800;28;20043;-74
2023/05/21 08:31:41;;;;;;;15.10;9.25;;;;;;;;;;4971872;28;20066;-78
2023/05/21 08:34:08;;;;;;;13.95;10.02;;;;;;;;;;4948236;28;20066;-70
2023/05/21 08:36:48;;;;;;;19.20;9.10;;;;;;;;;;4961261;28;20055;-71
2023/05/21 08:39:44;;;;;;;16.15;9.15;;;;;;;;;;4950824;28;20051;-70
2023/05/21 08:42:17;;;;;;;16.52;9.57;;;;;;;;;;4943764;28;20059;-70
2023/05/21 08:45:03;;;;;;;13.85;8.73;;;;;;;;;;4941842;28;20062;-69
2023/05/21 08:47:33;;;;;;;15.77;10.05;;;;;;;;;;4946392;28;20051;-69
2023/05/21 08:50:01;;;;;;;16.27;10.02;;;;;;;;;;4956458;28;20063;-70
2023/05/21 08:52:29;;;;;;;15.18;9.75;;;;;;;;;;4941929;28;20052;-71
2023/05/21 08:54:56;;;;;;;17.23;10.68;;;;;;;;;;4949484;28;20483;-72
2023/05/21 08:57:25;;;;;;;14.65;9.70;;;;;;;;;;4955898;28;20078;-75
2023/05/21 08:59:53;;;;;;;14.60;10.18;;;;;;;;;;4929771;28;20216;-77
2023/05/21 09:02:24;;;;;;;14.18;9.85;;;;;;;;;;4929370;28;20048;-72
2023/05/21 09:04:57;;;;;;;14.52;9.57;;;;;;;;;;4940089;28;20051;-73
2023/05/21 09:07:28;;;;;;;15.85;9.50;;;;;;;;;;4947586;28;20051;-69
2023/05/21 09:10:08;;;;;;;14.00;9.18;;;;;;;;;;4960632;28;20067;-69
2023/05/21 09:12:35;;;;;;;14.48;10.05;;;;;;;;;;4943091;28;20061;-70
2023/05/21 09:15:03;;;;;;;14.10;9.77;;;;;;;;;;4959534;28;20394;-70
2023/05/21 09:17:33;;;;;;;14.57;9.70;;;;;;;;;;4940708;28;20122;-72
2023/05/21 09:20:15;;;;;;;13.38;9.15;;;;;;;;;;4935281;28;20221;-72
2023/05/21 09:22:59;;;;;;;;;;;;;;;;;;5022379;27;20488;-71
2023/05/21 09:25:29;;;;;;;12.85;8.80;;;;;;;;;;5015182;28;19931;-73
2023/05/21 09:28:00;;;;;;;14.90;10.02;;;;;;;;;;5015835;28;20052;-73
2023/05/21 09:30:27;;;;;;;14.63;8.73;;;;;;;;;;5017781;28;20057;-73
2023/05/21 09:32:58;;;;;;;14.57;8.85;;;;;;;;;;5015995;28;20070;-72
2023/05/21 09:35:25;;;;;;;19.27;8.90;;;;;;;;;;5017833;28;20467;-72
2023/05/21 09:37:52;;;;;;;16.23;9.23;;;;;;;;;;5018568;28;20038;-75
2023/05/21 09:40:19;;;;;;;13.15;8.95;;;;;;;;;;5017818;28;20192;-72
2023/05/21 09:42:47;;;;;;;13.07;8.90;;;;;;;;;;5018600;28;20046;-70
2023/05/21 09:45:17;;;;;;;13.93;8.65;;;;;;;;;;5001723;28;20045;-71
2023/05/21 09:47:45;;;;;;;10.63;8.40;;;;;;;;;;4998307;28;20530;-70
2023/05/21 09:50:12;;;;;;;10.68;7.78;;;;;;;;;;5009040;28;20049;-71
2023/05/21 09:52:39;;;;;;;15.00;8.45;;;;;;;;;;5015547;28;20387;-71
2023/05/21 09:55:11;;;;;;;14.60;8.05;;;;;;;;;;5018065;28;20112;-74
2023/05/21 09:57:42;;;;;;;13.68;7.40;;;;;;;;;;5019854;28;20056;-72
2023/05/21 10:00:16;;;;;;;15.25;8.23;;;;;;;;;;5017398;28;20060;-74
2023/05/21 10:02:46;;;;;;;14.43;7.40;;;;;;;;;;5018192;28;20049;-74
2023/05/21 10:05:14;;;;;;;12.77;7.55;;;;;;;;;;5018855;28;20091;-71
2023/05/21 10:07:43;;;;;;;12.32;7.68;;;;;;;;;;5019530;28;20483;-71
2023/05/21 10:10:13;;;;;;;10.43;6.30;;;;;;;;;;5017668;28;20136;-72
2023/05/21 10:12:42;;;;;;;10.77;7.65;;;;;;;;;;5016747;28;20132;-71
2023/05/21 10:15:11;;;;;;;8.55;6.97;;;;;;;;;;5011131;28;20037;-74
2023/05/21 10:17:39;;;;;;;10.63;7.20;;;;;;;;;;5001524;28;20054;-72
2023/05/21 10:20:07;;;;;;;11.23;7.43;;;;;;;;;;5017893;28;20060;-72
2023/05/21 10:22:34;;;;;;;14.25;7.70;;;;;;;;;;5017463;28;20050;-72
2023/05/21 10:25:02;;;;;;;12.07;7.35;;;;;;;;;;5016065;28;20115;-72
2023/05/21 10:27:29;;;;;;;10.13;6.97;;;;;;;;;;5017394;28;20116;-71
2023/05/21 10:29:59;;;;;;;11.20;7.55;;;;;;;;;;5017728;28;20519;-71
2023/05/21 10:32:26;;;;;;;11.95;7.80;;;;;;;;;;5020056;28;20049;-72
2023/05/21 10:34:53;;;;;;;9.38;7.25;;;;;;;;;;5003838;28;20054;-71
2023/05/21 10:37:22;;;;;;;9.68;6.70;;;;;;;;;;5005188;28;20092;-70
2023/05/21 10:39:51;;;;;;;8.88;6.32;;;;;;;;;;5005086;28;20058;-71
2023/05/21 10:42:20;;;;;;;10.43;7.25;;;;;;;;;;5004136;28;20534;-72
2023/05/21 10:44:47;;;;;;;11.02;7.38;;;;;;;;;;5004687;28;20425;-71
2023/05/21 10:47:27;;;;;;;10.23;7.00;;;;;;;;;;5004525;28;20054;-72
2023/05/21 10:50:13;;;;;;;9.02;6.70;;;;;;;;;;4984987;28;20049;-71
2023/05/21 10:52:46;;;;;;;10.73;7.18;;;;;;;;;;4999250;28;20104;-70
2023/05/21 10:55:19;;;;;;;8.18;7.10;;;;;;;;;;5002932;28;20068;-71
2023/05/21 10:57:53;;;;;;;12.98;6.60;;;;;;;;;;5002744;28;20100;-70
2023/05/21 11:00:20;;;;;;;13.13;6.83;;;;;;;;;;5004819;28;20054;-73
2023/05/21 11:02:47;;;;;;;10.13;6.05;;;;;;;;;;5004798;28;20045;-72
2023/05/21 11:05:14;;;;;;;9.95;6.43;;;;;;;;;;5003320;28;20042;-72
2023/05/21 11:07:55;;;;;;;12.15;7.35;;;;;;;;;;4988645;28;20057;-72
2023/05/21 11:10:29;;;;;;;10.63;6.80;;;;;;;;;;5004093;28;20046;-72
2023/05/21 11:13:15;;;;;;;9.60;6.50;;;;;;;;;;5005603;28;20120;-72
2023/05/21 11:15:57;;;;;;;8.95;6.88;;;;;;;;;;5002705;28;20216;-71
2023/05/21 11:18:32;;;;;;;11.50;6.85;;;;;;;;;;4985661;28;20065;-69
2023/05/21 11:20:59;;;;;;;;;;;;;;;;;;5003127;28;20050;-70
2023/05/21 11:23:45;;;;;;;13.93;6.93;;;;;;;;;;5004973;28;19932;-70
2023/05/21 11:26:14;;;;;;;7.90;6.20;;;;;;;;;;5004638;28;20465;-70
2023/05/21 11:28:40;;;;;;;8.45;5.72;;;;;;;;;;5002018;28;20048;-72
2023/05/21 11:31:25;;;;;;;12.57;6.38;;;;;;;;;;4982438;28;20104;-69
2023/05/21 11:34:14;;;;;;;9.98;5.68;;;;;;;;;;5002282;28;20064;-70
2023/05/21 11:36:46;;;;;;;11.70;6.45;;;;;;;;;;4962098;28;20429;-70
2023/05/21 11:39:14;;;;;;;8.60;5.72;;;;;;;;;;5001393;28;20054;-71
2023/05/21 11:41:59;;;;;;;6.68;4.97;;;;;;;;;;5000452;28;20104;-72
2023/05/21 11:44:44;;;;;;;8.20;5.88;;;;;;;;;;5012311;28;20112;-70
2023/05/21 11:47:11;;;;;;;8.10;5.38;;;;;;;;;;5001827;28;20042;-75
2023/05/21 11:49:37;;;;;;;8.57;5.90;;;;;;;;;;5003636;28;20144;-74
2023/05/21 11:52:05;;;;;;;10.82;6.07;;;;;;;;;;5002848;28;20046;-71
2023/05/21 11:54:36;;;;;;;8.13;6.15;;;;;;;;;;5002668;28;20707;-72
2023/05/21 11:57:09;;;;;;;9.75;5.93;;;;;;;;;;5004933;28;20069;-71
2023/05/21 11:59:36;;;;;;;11.30;5.80;;;;;;;;;;5007213;28;20057;-81
2023/05/21 12:02:02;;;;;;;7.22;5.30;;;;;;;;;;4989040;28;20081;-80
2023/05/21 12:04:30;;;;;;;11.45;5.78;;;;;;;;;;5004861;28;20042;-78
2023/05/21 12:06:57;;;;;;;8.57;5.55;;;;;;;;;;5004908;28;20128;-79
2023/05/21 12:09:23;;;;;;;8.30;5.88;;;;;;;;;;5005990;28;20069;-81
2023/05/21 12:11:50;;;;;;;7.85;5.30;;;;;;;;;;5006292;28;20534;-80
2023/05/21 12:14:17;;;;;;;8.93;5.30;;;;;;;;;;5007792;28;20053;-77
2023/05/21 12:16:43;;;;;;;7.65;5.10;;;;;;;;;;5004792;28;20123;-77
2023/05/21 12:19:10;;;;;;;8.13;5.10;;;;;;;;;;5002753;28;20054;-83
2023/05/21 12:21:37;;;;;;;9.15;5.38;;;;;;;;;;4986425;28;20048;-79
2023/05/21 12:24:04;;;;;;;6.97;4.95;;;;;;;;;;5005527;28;20073;-79
2023/05/21 12:26:32;;;;;;;9.18;5.03;;;;;;;;;;5010058;28;20046;-79
2023/05/21 12:28:58;;;;;;;7.38;5.03;;;;;;;;;;5012279;28;20053;-80
2023/05/21 12:31:26;;;;;;;8.75;5.30;;;;;;;;;;4986871;28;20165;-78
2023/05/21 12:33:52;;;;;;;14.40;5.40;;;;;;;;;;5004656;28;20104;-80
2023/05/21 12:36:30;;;;;;;8.88;5.43;;;;;;;;;;5005419;28;20045;-78
2023/05/21 12:38:57;;;;;;;8.82;5.15;;;;;;;;;;5003640;28;20058;-79
2023/05/21 12:41:23;;;;;;;8.85;4.63;;;;;;;;;;5002973;28;20044;-81
2023/05/21 12:43:50;;;;;;;10.18;4.80;;;;;;;;;;5005096;28;20042;-78
2023/05/21 12:46:17;;;;;;;9.60;5.00;;;;;;;;;;5005533;28;20041;-79
2023/05/21 12:49:02;;;;;;;8.40;4.78;;;;;;;;;;4987059;28;20042;-81
2023/05/21 12:51:38;;;;;;;7.43;4.60;;;;;;;;;;4988716;28;20414;-81
2023/05/21 12:54:10;;;;;;;5.85;4.78;;;;;;;;;;5007554;28;20038;-79
2023/05/21 12:56:44;;;;;;;8.55;4.95;;;;;;;;;;5001313;28;20057;-78
2023/05/21 12:59:14;;;;;;;8.68;4.53;;;;;;;;;;4988236;28;20052;-78
2023/05/21 13:01:41;;;;;;;5.20;4.47;;;;;;;;;;5003957;28;20108;-78
2023/05/21 13:04:07;;;;;;;9.82;5.13;;;;;;;;;;5007324;28;20049;-79
2023/05/21 13:06:41;;;;;;;11.02;5.25;;;;;;;;;;5005713;28;20632;-78
2023/05/21 13:09:08;;;;;;;7.07;3.97;;;;;;;;;;5004355;28;20124;-80
2023/05/21 13:11:34;;;;;;;11.50;4.32;;;;;;;;;;5004771;28;20457;-80
2023/05/21 13:14:01;;;;;;;8.60;4.70;;;;;;;;;;4988450;28;20137;-79
2023/05/21 13:16:28;;;;;;;6.40;4.32;;;;;;;;;;5005836;28;20046;-79
2023/05/21 13:18:54;;;;;;;6.85;4.63;;;;;;;;;;5006063;28;20061;-79
2023/05/21 13:21:21;;;;;;;8.95;4.53;;;;;;;;;;5004370;28;20041;-78
2023/05/21 13:23:48;;;;;;;9.38;4.53;;;;;;;;;;5008841;28;20065;-81
2023/05/21 13:26:14;;;;;;;9.50;4.43;;;;;;;;;;4994236;28;20038;-85
2023/05/21 13:28:41;;;;;;;10.60;4.47;;;;;;;;;;4994857;28;20101;-79
2023/05/21 13:31:08;;;;;;;7.03;4.72;;;;;;;;;;4992473;28;20170;-81
2023/05/21 13:33:35;;;;;;;7.70;4.82;;;;;;;;;;5025741;28;20044;-82
2023/05/21 13:36:01;;;;;;;7.88;4.40;;;;;;;;;;5025482;28;20053;-82
2023/05/21 13:38:28;;;;;;;9.35;4.90;;;;;;;;;;5029962;28;20061;-82
2023/05/21 13:40:54;;;;;;;6.50;4.68;;;;;;;;;;5023184;28;20048;-84
2023/05/21 13:43:21;;;;;;;8.45;4.63;;;;;;;;;;5029109;28;20398;-81
2023/05/21 13:45:48;;;;;;;11.80;5.68;;;;;;;;;;5028378;28;20049;-85
2023/05/21 13:48:15;;;;;;;9.77;5.07;;;;;;;;;;5029435;28;20061;-83
2023/05/21 13:50:42;;;;;;;5.85;4.90;;;;;;;;;;5011534;28;20037;-88
2023/05/21 13:53:09;;;;;;;10.05;5.13;;;;;;;;;;5035375;28;20053;-84
2023/05/21 13:55:37;;;;;;;10.23;4.45;;;;;;;;;;5028491;28;20056;-85
2023/05/21 13:58:04;;;;;;;7.57;5.20;;;;;;;;;;5029299;28;20057;-81
2023/05/21 14:00:31;;;;;;;5.60;4.63;;;;;;;;;;5011121;28;20045;-83
2023/05/21 14:02:57;;;;;;;6.72;4.82;;;;;;;;;;5029455;28;20038;-82
2023/05/21 14:05:24;;;;;;;10.07;5.32;;;;;;;;;;5029122;28;20045;-86
2023/05/21 14:07:50;;;;;;;9.60;5.22;;;;;;;;;;5029471;28;21104;-82
2023/05/21 14:10:17;;;;;;;6.18;4.75;;;;;;;;;;5032240;28;20041;-83
2023/05/21 14:12:45;;;;;;;9.20;4.85;;;;;;;;;;5038297;28;20117;-81
2023/05/21 14:15:11;;;;;;;8.90;5.07;;;;;;;;;;5038787;28;20041;-79
2023/05/21 14:17:39;;;;;;;11.93;5.93;;;;;;;;;;5039477;28;20049;-82
2023/05/21 14:20:06;;;;;;;11.80;5.93;;;;;;;;;;5030960;28;20573;-80
2023/05/21 14:22:33;;;;;;;8.20;5.40;;;;;;;;;;5031789;28;20049;-81
2023/05/21 14:24:59;;;;;;;7.43;5.13;;;;;;;;;;5033096;28;20046;-82
2023/05/21 14:27:26;;;;;;;12.93;5.85;;;;;;;;;;5032265;28;20048;-80
2023/05/21 14:29:52;;;;;;;19.05;5.82;;;;;;;;;;5022602;28;20041;-79
2023/05/21 14:32:19;;;;;;;9.70;5.80;;;;;;;;;;5027824;28;20048;-79
2023/05/21 14:34:46;;;;;;;7.45;5.30;;;;;;;;;;5032478;28;20042;-79
2023/05/21 14:37:13;;;;;;;9.38;5.72;;;;;;;;;;5033326;28;20092;-77